sensor_id;sensor_type;location;lat;lon;timestamp;P1;durP1;ratioP1;P2;durP2;ratioP2
44728;SDS011;30457;53.590;9.922;2024-02-26T00:00:25;5.00;;;4.00;;
44728;SDS011;30457;53.590;9.922;2024-02-26T00:09:19;4.63;;;3.72;;
44728;SDS011;30457;53.590;9.922;2024-02-26T00:13:44;4.32;;;3.47;;
44728;SDS011;30457;53.590;9.922;2024-02-26T00:18:10;5.00;;;3.63;;
44728;SDS011;30457;53.590;9.922;2024-02-26T00:22:36;5.18;;;3.75;;
44728;SDS011;30457;53.590;9.922;2024-02-26T00:27:02;3.88;;;3.28;;
44728;SDS011;30457;53.590;9.922;2024-02-26T00:31:28;6.45;;;3.97;;
44728;SDS011;30457;53.590;9.922;2024-02-26T00:35:53;4.90;;;3.80;;
44728;SDS011;30457;53.590;9.922;2024-02-26T00:40:19;4.88;;;4.30;;
44728;SDS011;30457;53.590;9.922;2024-02-26T00:44:45;5.63;;;4.05;;
44728;SDS011;30457;53.590;9.922;2024-02-26T00:49:10;5.13;;;3.88;;
44728;SDS011;30457;53.590;9.922;2024-02-26T00:53:36;3.80;;;3.35;;
44728;SDS011;30457;53.590;9.922;2024-02-26T00:58:01;6.13;;;3.75;;
44728;SDS011;30457;53.590;9.922;2024-02-26T01:02:27;6.72;;;4.30;;
44728;SDS011;30457;53.590;9.922;2024-02-26T01:06:52;7.63;;;5.00;;
44728;SDS011;30457;53.590;9.922;2024-02-26T01:11:18;6.47;;;4.70;;
44728;SDS011;30457;53.590;9.922;2024-02-26T01:15:43;5.45;;;4.18;;
44728;SDS011;30457;53.590;9.922;2024-02-26T01:20:09;5.95;;;4.03;;
44728;SDS011;30457;53.590;9.922;2024-02-26T01:24:35;8.35;;;5.63;;
44728;SDS011;30457;53.590;9.922;2024-02-26T01:29:01;7.90;;;4.97;;
44728;SDS011;30457;53.590;9.922;2024-02-26T01:33:26;9.75;;;5.65;;
44728;SDS011;30457;53.590;9.922;2024-02-26T01:37:52;8.70;;;5.13;;
44728;SDS011;30457;53.590;9.922;2024-02-26T01:42:17;6.82;;;4.82;;
44728;SDS011;30457;53.590;9.922;2024-02-26T01:46:43;8.38;;;5.15;;
44728;SDS011;30457;53.590;9.922;2024-02-26T01:51:09;6.35;;;4.60;;
44728;SDS011;30457;53.590;9.922;2024-02-26T01:55:35;9.88;;;4.95;;
44728;SDS011;30457;53.590;9.922;2024-02-26T02:00:05;7.97;;;4.28;;
44728;SDS011;30457;53.590;9.922;2024-02-26T02:04:33;6.50;;;4.70;;
44728;SDS011;30457;53.590;9.922;2024-02-26T02:09:00;9.48;;;5.20;;
44728;SDS011;30457;53.590;9.922;2024-02-26T02:13:31;9.52;;;4.85;;
44728;SDS011;30457;53.590;9.922;2024-02-26T02:17:56;8.38;;;4.57;;
44728;SDS011;30457;53.590;9.922;2024-02-26T02:22:22;7.75;;;4.43;;
44728;SDS011;30457;53.590;9.922;2024-02-26T02:26:48;5.32;;;4.25;;
44728;SDS011;30457;53.590;9.922;2024-02-26T02:31:13;8.07;;;4.10;;
44728;SDS011;30457;53.590;9.922;2024-02-26T02:35:40;6.25;;;4.22;;
44728;SDS011;30457;53.590;9.922;2024-02-26T02:40:06;6.20;;;4.32;;
44728;SDS011;30457;53.590;9.922;2024-02-26T02:44:32;7.30;;;4.72;;
44728;SDS011;30457;53.590;9.922;2024-02-26T02:48:57;5.95;;;4.57;;
44728;SDS011;30457;53.590;9.922;2024-02-26T02:53:23;6.30;;;5.00;;
44728;SDS011;30457;53.590;9.922;2024-02-26T02:57:48;6.88;;;5.30;;
44728;SDS011;30457;53.590;9.922;2024-02-26T03:02:14;7.72;;;4.93;;
44728;SDS011;30457;53.590;9.922;2024-02-26T03:06:39;7.93;;;5.20;;
44728;SDS011;30457;53.590;9.922;2024-02-26T03:11:05;7.90;;;5.53;;
44728;SDS011;30457;53.590;9.922;2024-02-26T03:15:31;7.30;;;5.30;;
44728;SDS011;30457;53.590;9.922;2024-02-26T03:19:57;8.55;;;5.65;;
44728;SDS011;30457;53.590;9.922;2024-02-26T03:24:22;9.00;;;5.72;;
44728;SDS011;30457;53.590;9.922;2024-02-26T03:28:48;6.78;;;5.15;;
44728;SDS011;30457;53.590;9.922;2024-02-26T03:33:14;10.95;;;6.30;;
44728;SDS011;30457;53.590;9.922;2024-02-26T03:37:39;9.50;;;5.88;;
44728;SDS011;30457;53.590;9.922;2024-02-26T03:42:05;8.55;;;6.03;;
44728;SDS011;30457;53.590;9.922;2024-02-26T03:46:30;9.75;;;5.85;;
44728;SDS011;30457;53.590;9.922;2024-02-26T03:50:56;9.73;;;7.28;;
44728;SDS011;30457;53.590;9.922;2024-02-26T03:55:22;9.15;;;6.32;;
44728;SDS011;30457;53.590;9.922;2024-02-26T03:59:49;9.82;;;5.82;;
44728;SDS011;30457;53.590;9.922;2024-02-26T04:04:15;8.65;;;6.30;;
44728;SDS011;30457;53.590;9.922;2024-02-26T04:08:41;10.32;;;6.72;;
44728;SDS011;30457;53.590;9.922;2024-02-26T04:13:07;9.77;;;6.22;;
44728;SDS011;30457;53.590;9.922;2024-02-26T04:17:33;12.80;;;7.25;;
44728;SDS011;30457;53.590;9.922;2024-02-26T04:21:59;14.23;;;8.43;;
44728;SDS011;30457;53.590;9.922;2024-02-26T04:26:24;14.55;;;9.02;;
44728;SDS011;30457;53.590;9.922;2024-02-26T04:30:50;15.90;;;8.90;;
44728;SDS011;30457;53.590;9.922;2024-02-26T04:35:16;14.52;;;8.98;;
44728;SDS011;30457;53.590;9.922;2024-02-26T04:39:41;13.18;;;7.55;;
44728;SDS011;30457;53.590;9.922;2024-02-26T04:44:07;14.13;;;7.95;;
44728;SDS011;30457;53.590;9.922;2024-02-26T04:48:32;13.27;;;7.53;;
44728;SDS011;30457;53.590;9.922;2024-02-26T04:52:58;10.63;;;7.05;;
44728;SDS011;30457;53.590;9.922;2024-02-26T04:57:23;11.68;;;8.15;;
44728;SDS011;30457;53.590;9.922;2024-02-26T05:01:49;11.98;;;8.15;;
44728;SDS011;30457;53.590;9.922;2024-02-26T05:06:16;14.82;;;8.65;;
44728;SDS011;30457;53.590;9.922;2024-02-26T05:10:42;12.75;;;8.63;;
44728;SDS011;30457;53.590;9.922;2024-02-26T05:15:09;11.25;;;7.35;;
44728;SDS011;30457;53.590;9.922;2024-02-26T05:19:35;13.48;;;8.32;;
44728;SDS011;30457;53.590;9.922;2024-02-26T05:24:01;13.35;;;7.55;;
44728;SDS011;30457;53.590;9.922;2024-02-26T05:28:26;11.20;;;7.43;;
44728;SDS011;30457;53.590;9.922;2024-02-26T05:32:52;11.02;;;7.55;;
44728;SDS011;30457;53.590;9.922;2024-02-26T05:37:17;15.75;;;9.45;;
44728;SDS011;30457;53.590;9.922;2024-02-26T05:41:43;13.82;;;8.45;;
44728;SDS011;30457;53.590;9.922;2024-02-26T05:46:08;11.95;;;7.85;;
44728;SDS011;30457;53.590;9.922;2024-02-26T05:50:34;17.17;;;8.70;;
44728;SDS011;30457;53.590;9.922;2024-02-26T05:55:00;14.05;;;8.32;;
44728;SDS011;30457;53.590;9.922;2024-02-26T05:59:25;12.82;;;8.82;;
44728;SDS011;30457;53.590;9.922;2024-02-26T06:03:51;15.88;;;9.32;;
44728;SDS011;30457;53.590;9.922;2024-02-26T06:08:16;16.15;;;9.68;;
44728;SDS011;30457;53.590;9.922;2024-02-26T06:12:42;13.82;;;8.00;;
44728;SDS011;30457;53.590;9.922;2024-02-26T06:17:08;11.38;;;7.15;;
44728;SDS011;30457;53.590;9.922;2024-02-26T06:21:33;10.88;;;7.32;;
44728;SDS011;30457;53.590;9.922;2024-02-26T06:25:59;12.75;;;8.30;;
44728;SDS011;30457;53.590;9.922;2024-02-26T06:30:24;14.10;;;8.32;;
44728;SDS011;30457;53.590;9.922;2024-02-26T06:34:50;11.85;;;7.60;;
44728;SDS011;30457;53.590;9.922;2024-02-26T06:39:15;16.45;;;8.85;;
44728;SDS011;30457;53.590;9.922;2024-02-26T06:43:41;13.15;;;8.35;;
44728;SDS011;30457;53.590;9.922;2024-02-26T06:48:06;15.95;;;8.95;;
44728;SDS011;30457;53.590;9.922;2024-02-26T06:52:32;14.93;;;9.45;;
44728;SDS011;30457;53.590;9.922;2024-02-26T06:56:57;13.50;;;8.57;;
44728;SDS011;30457;53.590;9.922;2024-02-26T07:01:23;14.43;;;8.77;;
44728;SDS011;30457;53.590;9.922;2024-02-26T07:05:49;16.92;;;9.18;;
44728;SDS011;30457;53.590;9.922;2024-02-26T07:10:15;14.80;;;9.73;;
44728;SDS011;30457;53.590;9.922;2024-02-26T07:14:40;14.15;;;8.90;;
44728;SDS011;30457;53.590;9.922;2024-02-26T07:19:07;19.08;;;10.68;;
44728;SDS011;30457;53.590;9.922;2024-02-26T07:23:32;30.17;;;15.45;;
44728;SDS011;30457;53.590;9.922;2024-02-26T07:27:58;31.15;;;17.10;;
44728;SDS011;30457;53.590;9.922;2024-02-26T07:32:23;25.90;;;15.10;;
44728;SDS011;30457;53.590;9.922;2024-02-26T07:36:49;24.70;;;13.10;;
44728;SDS011;30457;53.590;9.922;2024-02-26T07:41:14;21.38;;;10.18;;
44728;SDS011;30457;53.590;9.922;2024-02-26T07:45:40;21.35;;;10.65;;
44728;SDS011;30457;53.590;9.922;2024-02-26T07:50:06;18.73;;;9.52;;
44728;SDS011;30457;53.590;9.922;2024-02-26T07:54:33;17.75;;;10.07;;
44728;SDS011;30457;53.590;9.922;2024-02-26T07:58:58;17.27;;;9.57;;
44728;SDS011;30457;53.590;9.922;2024-02-26T08:03:24;19.75;;;9.55;;
44728;SDS011;30457;53.590;9.922;2024-02-26T08:07:49;16.17;;;9.93;;
44728;SDS011;30457;53.590;9.922;2024-02-26T08:12:15;16.50;;;9.50;;
44728;SDS011;30457;53.590;9.922;2024-02-26T08:16:41;17.52;;;9.25;;
44728;SDS011;30457;53.590;9.922;2024-02-26T08:21:07;28.02;;;10.32;;
44728;SDS011;30457;53.590;9.922;2024-02-26T08:25:33;14.57;;;8.18;;
44728;SDS011;30457;53.590;9.922;2024-02-26T08:29:59;18.27;;;9.82;;
44728;SDS011;30457;53.590;9.922;2024-02-26T08:34:24;16.42;;;8.80;;
44728;SDS011;30457;53.590;9.922;2024-02-26T08:38:50;18.85;;;10.32;;
44728;SDS011;30457;53.590;9.922;2024-02-26T08:43:16;16.17;;;9.68;;
44728;SDS011;30457;53.590;9.922;2024-02-26T08:47:41;16.95;;;9.10;;
44728;SDS011;30457;53.590;9.922;2024-02-26T08:52:09;17.35;;;7.90;;
44728;SDS011;30457;53.590;9.922;2024-02-26T08:56:34;15.80;;;8.63;;
44728;SDS011;30457;53.590;9.922;2024-02-26T09:01:00;13.98;;;7.72;;
44728;SDS011;30457;53.590;9.922;2024-02-26T09:05:25;16.08;;;8.55;;
44728;SDS011;30457;53.590;9.922;2024-02-26T09:09:51;16.45;;;8.90;;
44728;SDS011;30457;53.590;9.922;2024-02-26T09:14:17;17.83;;;9.95;;
44728;SDS011;30457;53.590;9.922;2024-02-26T09:18:43;15.23;;;9.18;;
44728;SDS011;30457;53.590;9.922;2024-02-26T09:23:09;14.40;;;8.30;;
44728;SDS011;30457;53.590;9.922;2024-02-26T09:27:34;16.27;;;8.80;;
44728;SDS011;30457;53.590;9.922;2024-02-26T09:32:00;16.88;;;9.55;;
44728;SDS011;30457;53.590;9.922;2024-02-26T09:36:26;20.70;;;10.77;;
44728;SDS011;30457;53.590;9.922;2024-02-26T09:40:51;16.23;;;8.45;;
44728;SDS011;30457;53.590;9.922;2024-02-26T09:45:18;16.67;;;8.80;;
44728;SDS011;30457;53.590;9.922;2024-02-26T09:49:46;16.13;;;8.52;;
44728;SDS011;30457;53.590;9.922;2024-02-26T09:54:12;20.88;;;9.77;;
44728;SDS011;30457;53.590;9.922;2024-02-26T09:58:39;16.23;;;9.00;;
44728;SDS011;30457;53.590;9.922;2024-02-26T10:03:09;15.45;;;9.45;;
44728;SDS011;30457;53.590;9.922;2024-02-26T10:07:40;16.67;;;8.70;;
44728;SDS011;30457;53.590;9.922;2024-02-26T10:12:08;13.80;;;7.45;;
44728;SDS011;30457;53.590;9.922;2024-02-26T10:16:36;15.85;;;8.18;;
44728;SDS011;30457;53.590;9.922;2024-02-26T10:21:02;16.55;;;8.32;;
44728;SDS011;30457;53.590;9.922;2024-02-26T10:25:28;13.52;;;7.93;;
44728;SDS011;30457;53.590;9.922;2024-02-26T10:30:02;16.52;;;9.45;;
44728;SDS011;30457;53.590;9.922;2024-02-26T10:34:29;18.67;;;9.63;;
44728;SDS011;30457;53.590;9.922;2024-02-26T10:38:55;18.38;;;9.15;;
44728;SDS011;30457;53.590;9.922;2024-02-26T10:43:21;15.95;;;8.23;;
44728;SDS011;30457;53.590;9.922;2024-02-26T10:47:47;14.60;;;7.88;;
44728;SDS011;30457;53.590;9.922;2024-02-26T10:52:13;12.65;;;7.10;;
44728;SDS011;30457;53.590;9.922;2024-02-26T10:56:40;14.05;;;7.32;;
44728;SDS011;30457;53.590;9.922;2024-02-26T11:01:08;15.05;;;7.60;;
44728;SDS011;30457;53.590;9.922;2024-02-26T11:05:34;16.00;;;8.88;;
44728;SDS011;30457;53.590;9.922;2024-02-26T11:10:00;17.02;;;8.98;;
44728;SDS011;30457;53.590;9.922;2024-02-26T11:14:27;13.75;;;7.57;;
44728;SDS011;30457;53.590;9.922;2024-02-26T11:18:54;13.90;;;7.57;;
44728;SDS011;30457;53.590;9.922;2024-02-26T11:23:22;16.85;;;8.02;;
44728;SDS011;30457;53.590;9.922;2024-02-26T11:27:50;13.52;;;7.75;;
44728;SDS011;30457;53.590;9.922;2024-02-26T11:32:22;13.65;;;8.00;;
44728;SDS011;30457;53.590;9.922;2024-02-26T11:36:48;14.55;;;8.38;;
44728;SDS011;30457;53.590;9.922;2024-02-26T11:41:14;13.20;;;7.82;;
44728;SDS011;30457;53.590;9.922;2024-02-26T11:54:59;11.00;;;7.13;;
44728;SDS011;30457;53.590;9.922;2024-02-26T11:59:37;11.63;;;7.57;;
44728;SDS011;30457;53.590;9.922;2024-02-26T12:04:11;13.45;;;6.97;;
44728;SDS011;30457;53.590;9.922;2024-02-26T12:08:41;12.93;;;7.93;;
44728;SDS011;30457;53.590;9.922;2024-02-26T12:17:41;9.75;;;6.70;;
44728;SDS011;30457;53.590;9.922;2024-02-26T12:22:13;10.02;;;7.00;;
44728;SDS011;30457;53.590;9.922;2024-02-26T12:26:39;17.65;;;8.48;;
44728;SDS011;30457;53.590;9.922;2024-02-26T12:31:05;12.80;;;8.05;;
44728;SDS011;30457;53.590;9.922;2024-02-26T12:35:31;13.10;;;8.35;;
44728;SDS011;30457;53.590;9.922;2024-02-26T12:39:57;13.35;;;7.82;;
44728;SDS011;30457;53.590;9.922;2024-02-26T12:44:25;13.93;;;8.40;;
44728;SDS011;30457;53.590;9.922;2024-02-26T12:48:51;14.30;;;8.48;;
44728;SDS011;30457;53.590;9.922;2024-02-26T12:53:19;13.50;;;8.40;;
44728;SDS011;30457;53.590;9.922;2024-02-26T12:57:45;12.20;;;7.80;;
44728;SDS011;30457;53.590;9.922;2024-02-26T13:02:11;16.95;;;7.78;;
44728;SDS011;30457;53.590;9.922;2024-02-26T13:06:37;14.68;;;8.68;;
44728;SDS011;30457;53.590;9.922;2024-02-26T13:11:03;12.60;;;8.30;;
44728;SDS011;30457;53.590;9.922;2024-02-26T13:15:28;13.27;;;7.35;;
44728;SDS011;30457;53.590;9.922;2024-02-26T13:19:54;15.32;;;8.82;;
44728;SDS011;30457;53.590;9.922;2024-02-26T13:24:20;12.68;;;8.02;;
44728;SDS011;30457;53.590;9.922;2024-02-26T13:28:47;13.27;;;8.20;;
44728;SDS011;30457;53.590;9.922;2024-02-26T13:33:12;12.52;;;7.53;;
44728;SDS011;30457;53.590;9.922;2024-02-26T13:37:38;12.80;;;7.38;;
44728;SDS011;30457;53.590;9.922;2024-02-26T13:42:05;12.18;;;7.10;;
44728;SDS011;30457;53.590;9.922;2024-02-26T13:46:33;14.57;;;7.07;;
44728;SDS011;30457;53.590;9.922;2024-02-26T13:50:58;11.55;;;7.50;;
44728;SDS011;30457;53.590;9.922;2024-02-26T13:55:26;14.05;;;7.95;;
44728;SDS011;30457;53.590;9.922;2024-02-26T13:59:53;11.50;;;7.05;;
44728;SDS011;30457;53.590;9.922;2024-02-26T14:04:19;12.50;;;7.68;;
44728;SDS011;30457;53.590;9.922;2024-02-26T14:08:44;13.65;;;7.80;;
44728;SDS011;30457;53.590;9.922;2024-02-26T14:13:10;12.00;;;7.80;;
44728;SDS011;30457;53.590;9.922;2024-02-26T14:17:35;10.95;;;6.88;;
44728;SDS011;30457;53.590;9.922;2024-02-26T14:22:01;13.35;;;7.60;;
44728;SDS011;30457;53.590;9.922;2024-02-26T14:26:27;10.23;;;6.65;;
44728;SDS011;30457;53.590;9.922;2024-02-26T14:30:53;12.43;;;7.53;;
44728;SDS011;30457;53.590;9.922;2024-02-26T14:35:19;11.82;;;6.90;;
44728;SDS011;30457;53.590;9.922;2024-02-26T14:39:44;10.32;;;7.28;;
44728;SDS011;30457;53.590;9.922;2024-02-26T14:44:12;11.43;;;6.63;;
44728;SDS011;30457;53.590;9.922;2024-02-26T14:48:38;11.98;;;7.72;;
44728;SDS011;30457;53.590;9.922;2024-02-26T14:53:03;9.07;;;6.00;;
44728;SDS011;30457;53.590;9.922;2024-02-26T14:57:29;12.80;;;7.47;;
44728;SDS011;30457;53.590;9.922;2024-02-26T15:01:54;13.02;;;7.78;;
44728;SDS011;30457;53.590;9.922;2024-02-26T15:06:20;11.63;;;7.75;;
44728;SDS011;30457;53.590;9.922;2024-02-26T15:10:46;10.55;;;7.65;;
44728;SDS011;30457;53.590;9.922;2024-02-26T15:15:14;11.48;;;8.40;;
44728;SDS011;30457;53.590;9.922;2024-02-26T15:19:40;12.27;;;8.20;;
44728;SDS011;30457;53.590;9.922;2024-02-26T15:24:05;11.30;;;7.30;;
44728;SDS011;30457;53.590;9.922;2024-02-26T15:28:31;11.52;;;7.82;;
44728;SDS011;30457;53.590;9.922;2024-02-26T15:32:57;10.35;;;7.32;;
44728;SDS011;30457;53.590;9.922;2024-02-26T15:37:23;11.98;;;8.00;;
44728;SDS011;30457;53.590;9.922;2024-02-26T15:41:50;13.15;;;7.95;;
44728;SDS011;30457;53.590;9.922;2024-02-26T15:46:16;11.32;;;7.40;;
44728;SDS011;30457;53.590;9.922;2024-02-26T15:50:43;8.60;;;6.25;;
44728;SDS011;30457;53.590;9.922;2024-02-26T15:55:11;13.30;;;6.97;;
44728;SDS011;30457;53.590;9.922;2024-02-26T15:59:37;10.63;;;5.75;;
44728;SDS011;30457;53.590;9.922;2024-02-26T16:04:02;12.35;;;6.45;;
44728;SDS011;30457;53.590;9.922;2024-02-26T16:08:28;7.80;;;5.53;;
44728;SDS011;30457;53.590;9.922;2024-02-26T16:12:55;7.97;;;5.95;;
44728;SDS011;30457;53.590;9.922;2024-02-26T16:17:27;10.40;;;5.90;;
44728;SDS011;30457;53.590;9.922;2024-02-26T16:21:59;9.43;;;5.82;;
44728;SDS011;30457;53.590;9.922;2024-02-26T16:26:24;6.10;;;4.88;;
44728;SDS011;30457;53.590;9.922;2024-02-26T16:30:50;7.70;;;5.43;;
44728;SDS011;30457;53.590;9.922;2024-02-26T16:35:16;9.07;;;5.43;;
44728;SDS011;30457;53.590;9.922;2024-02-26T16:39:42;9.35;;;6.30;;
44728;SDS011;30457;53.590;9.922;2024-02-26T16:44:08;9.63;;;6.47;;
44728;SDS011;30457;53.590;9.922;2024-02-26T16:48:33;7.85;;;5.43;;
44728;SDS011;30457;53.590;9.922;2024-02-26T16:53:00;8.75;;;6.50;;
44728;SDS011;30457;53.590;9.922;2024-02-26T16:57:25;10.98;;;6.90;;
44728;SDS011;30457;53.590;9.922;2024-02-26T17:01:51;8.65;;;6.15;;
44728;SDS011;30457;53.590;9.922;2024-02-26T17:06:17;14.30;;;7.50;;
44728;SDS011;30457;53.590;9.922;2024-02-26T17:10:48;13.77;;;8.23;;
44728;SDS011;30457;53.590;9.922;2024-02-26T17:15:13;17.17;;;10.52;;
44728;SDS011;30457;53.590;9.922;2024-02-26T17:19:39;16.27;;;9.73;;
44728;SDS011;30457;53.590;9.922;2024-02-26T17:24:04;26.13;;;14.10;;
44728;SDS011;30457;53.590;9.922;2024-02-26T17:28:30;22.50;;;11.85;;
44728;SDS011;30457;53.590;9.922;2024-02-26T17:32:56;15.68;;;9.32;;
44728;SDS011;30457;53.590;9.922;2024-02-26T17:37:22;14.90;;;9.13;;
44728;SDS011;30457;53.590;9.922;2024-02-26T17:41:48;13.32;;;9.35;;
44728;SDS011;30457;53.590;9.922;2024-02-26T17:46:13;12.23;;;8.18;;
44728;SDS011;30457;53.590;9.922;2024-02-26T17:50:39;11.23;;;7.22;;
44728;SDS011;30457;53.590;9.922;2024-02-26T17:55:04;14.30;;;8.23;;
44728;SDS011;30457;53.590;9.922;2024-02-26T17:59:30;14.55;;;9.38;;
44728;SDS011;30457;53.590;9.922;2024-02-26T18:03:56;11.52;;;8.07;;
44728;SDS011;30457;53.590;9.922;2024-02-26T18:08:22;13.80;;;8.07;;
44728;SDS011;30457;53.590;9.922;2024-02-26T18:12:47;13.07;;;7.43;;
44728;SDS011;30457;53.590;9.922;2024-02-26T18:17:13;12.63;;;8.20;;
44728;SDS011;30457;53.590;9.922;2024-02-26T18:21:39;13.95;;;8.10;;
44728;SDS011;30457;53.590;9.922;2024-02-26T18:26:05;9.68;;;6.57;;
44728;SDS011;30457;53.590;9.922;2024-02-26T18:30:31;9.68;;;6.30;;
44728;SDS011;30457;53.590;9.922;2024-02-26T18:34:58;9.68;;;5.95;;
44728;SDS011;30457;53.590;9.922;2024-02-26T18:39:23;11.38;;;7.68;;
44728;SDS011;30457;53.590;9.922;2024-02-26T18:43:50;12.77;;;6.45;;
44728;SDS011;30457;53.590;9.922;2024-02-26T18:48:17;10.15;;;6.65;;
44728;SDS011;30457;53.590;9.922;2024-02-26T18:52:45;13.23;;;6.88;;
44728;SDS011;30457;53.590;9.922;2024-02-26T18:57:11;10.15;;;6.35;;
44728;SDS011;30457;53.590;9.922;2024-02-26T19:01:36;9.05;;;6.18;;
44728;SDS011;30457;53.590;9.922;2024-02-26T19:06:03;11.93;;;6.85;;
44728;SDS011;30457;53.590;9.922;2024-02-26T19:10:31;9.43;;;6.03;;
44728;SDS011;30457;53.590;9.922;2024-02-26T19:14:56;9.75;;;5.80;;
44728;SDS011;30457;53.590;9.922;2024-02-26T19:19:22;9.65;;;6.18;;
44728;SDS011;30457;53.590;9.922;2024-02-26T19:23:47;8.52;;;5.88;;
44728;SDS011;30457;53.590;9.922;2024-02-26T19:28:13;10.88;;;6.85;;
44728;SDS011;30457;53.590;9.922;2024-02-26T19:32:40;12.10;;;6.85;;
44728;SDS011;30457;53.590;9.922;2024-02-26T19:37:05;8.65;;;6.13;;
44728;SDS011;30457;53.590;9.922;2024-02-26T19:41:31;10.80;;;6.90;;
44728;SDS011;30457;53.590;9.922;2024-02-26T19:45:57;9.10;;;6.53;;
44728;SDS011;30457;53.590;9.922;2024-02-26T19:50:22;10.57;;;7.07;;
44728;SDS011;30457;53.590;9.922;2024-02-26T19:54:49;10.27;;;6.55;;
44728;SDS011;30457;53.590;9.922;2024-02-26T19:59:15;9.93;;;6.32;;
44728;SDS011;30457;53.590;9.922;2024-02-26T20:03:40;11.35;;;6.63;;
44728;SDS011;30457;53.590;9.922;2024-02-26T20:08:09;12.07;;;7.47;;
44728;SDS011;30457;53.590;9.922;2024-02-26T20:12:35;10.85;;;6.75;;
44728;SDS011;30457;53.590;9.922;2024-02-26T20:17:01;11.05;;;7.25;;
44728;SDS011;30457;53.590;9.922;2024-02-26T20:21:27;11.77;;;7.05;;
44728;SDS011;30457;53.590;9.922;2024-02-26T20:25:53;15.02;;;9.55;;
44728;SDS011;30457;53.590;9.922;2024-02-26T20:30:22;10.80;;;7.30;;
44728;SDS011;30457;53.590;9.922;2024-02-26T20:34:51;13.35;;;7.63;;
44728;SDS011;30457;53.590;9.922;2024-02-26T20:39:16;10.75;;;6.63;;
44728;SDS011;30457;53.590;9.922;2024-02-26T20:43:43;14.38;;;8.15;;
44728;SDS011;30457;53.590;9.922;2024-02-26T20:48:08;15.93;;;9.10;;
44728;SDS011;30457;53.590;9.922;2024-02-26T20:52:34;14.55;;;8.10;;
44728;SDS011;30457;53.590;9.922;2024-02-26T20:56:59;18.27;;;9.40;;
44728;SDS011;30457;53.590;9.922;2024-02-26T21:01:27;17.58;;;9.25;;
44728;SDS011;30457;53.590;9.922;2024-02-26T21:05:52;20.42;;;10.18;;
44728;SDS011;30457;53.590;9.922;2024-02-26T21:10:18;17.15;;;9.52;;
44728;SDS011;30457;53.590;9.922;2024-02-26T21:14:44;22.05;;;9.75;;
44728;SDS011;30457;53.590;9.922;2024-02-26T21:19:09;20.20;;;9.32;;
44728;SDS011;30457;53.590;9.922;2024-02-26T21:23:35;18.17;;;9.00;;
44728;SDS011;30457;53.590;9.922;2024-02-26T21:28:01;18.60;;;9.65;;
44728;SDS011;30457;53.590;9.922;2024-02-26T21:32:27;20.85;;;9.25;;
44728;SDS011;30457;53.590;9.922;2024-02-26T21:36:52;19.02;;;9.13;;
44728;SDS011;30457;53.590;9.922;2024-02-26T21:41:18;17.17;;;9.48;;
44728;SDS011;30457;53.590;9.922;2024-02-26T21:45:44;19.23;;;8.40;;
44728;SDS011;30457;53.590;9.922;2024-02-26T21:50:09;16.75;;;8.77;;
44728;SDS011;30457;53.590;9.922;2024-02-26T21:54:36;18.90;;;8.88;;
44728;SDS011;30457;53.590;9.922;2024-02-26T21:59:11;18.88;;;9.10;;
44728;SDS011;30457;53.590;9.922;2024-02-26T22:03:36;15.88;;;7.85;;
44728;SDS011;30457;53.590;9.922;2024-02-26T22:08:02;17.48;;;8.73;;
44728;SDS011;30457;53.590;9.922;2024-02-26T22:12:28;14.93;;;7.70;;
44728;SDS011;30457;53.590;9.922;2024-02-26T22:16:53;17.15;;;8.93;;
44728;SDS011;30457;53.590;9.922;2024-02-26T22:21:19;18.15;;;8.85;;
44728;SDS011;30457;53.590;9.922;2024-02-26T22:25:45;17.60;;;8.48;;
44728;SDS011;30457;53.590;9.922;2024-02-26T22:30:11;21.02;;;9.15;;
44728;SDS011;30457;53.590;9.922;2024-02-26T22:34:37;20.35;;;10.40;;
44728;SDS011;30457;53.590;9.922;2024-02-26T22:39:03;21.05;;;9.60;;
44728;SDS011;30457;53.590;9.922;2024-02-26T22:43:29;22.38;;;10.32;;
44728;SDS011;30457;53.590;9.922;2024-02-26T22:47:54;20.40;;;10.20;;
44728;SDS011;30457;53.590;9.922;2024-02-26T22:52:20;18.05;;;9.40;;
44728;SDS011;30457;53.590;9.922;2024-02-26T22:56:45;21.23;;;9.35;;
44728;SDS011;30457;53.590;9.922;2024-02-26T23:01:11;18.75;;;9.68;;
44728;SDS011;30457;53.590;9.922;2024-02-26T23:05:37;19.50;;;9.77;;
44728;SDS011;30457;53.590;9.922;2024-02-26T23:10:03;20.67;;;9.63;;
44728;SDS011;30457;53.590;9.922;2024-02-26T23:14:29;18.67;;;9.40;;
44728;SDS011;30457;53.590;9.922;2024-02-26T23:18:54;19.50;;;10.40;;
44728;SDS011;30457;53.590;9.922;2024-02-26T23:23:20;23.95;;;10.80;;
44728;SDS011;30457;53.590;9.922;2024-02-26T23:27:46;19.63;;;10.07;;
44728;SDS011;30457;53.590;9.922;2024-02-26T23:32:12;20.50;;;10.65;;
44728;SDS011;30457;53.590;9.922;2024-02-26T23:36:38;18.45;;;8.93;;
44728;SDS011;30457;53.590;9.922;2024-02-26T23:41:04;18.75;;;9.23;;
44728;SDS011;30457;53.590;9.922;2024-02-26T23:45:29;21.27;;;10.88;;
44728;SDS011;30457;53.590;9.922;2024-02-26T23:49:55;18.75;;;10.30;;
44728;SDS011;30457;53.590;9.922;2024-02-26T23:54:21;18.58;;;10.05;;
44728;SDS011;30457;53.590;9.922;2024-02-26T23:58:47;18.95;;;9.18;;
